SWA442 KSAN-KFAT
Flight info
| Callsign | SWA442 |
|---|---|
| Flight time | 0h 54m |
| Altitude | 32000 |
| Route | PADRZ2 EHF TTE ALTTA9 |
| Aircraft | B38M/M-SDE1FGHILORVWXY/HB1 |
Departure
| Time | 2026-04-26 16:18 |
|---|---|
| Airport | San Diego International Airport (KSAN) |
Arrival
| Time | 2026-04-26 17:12 |
|---|---|
| Airport | Fresno Yosemite International Airport (KFAT) |
| Time | Latitude | Longitude | Altitude | Speed | Heading |
|---|---|---|---|---|---|
| 2026-04-26 15:46 | 32.73288 | -117.19555 | 27 ft | 0 kts | 282° |
| 2026-04-26 16:04 | 32.73285 | -117.19532 | 27 ft | 4 kts | 271° |
| 2026-04-26 16:04 | 32.73283 | -117.19503 | 27 ft | 4 kts | 263° |
| 2026-04-26 16:04 | 32.73287 | -117.19490 | 27 ft | 0 kts | 227° |
| 2026-04-26 16:06 | 32.73286 | -117.19492 | 27 ft | 0 kts | 227° |
| 2026-04-26 16:09 | 32.73285 | -117.19497 | 27 ft | 1 kts | 254° |
| 2026-04-26 16:09 | 32.73287 | -117.19503 | 27 ft | 1 kts | 299° |
| 2026-04-26 16:09 | 32.73291 | -117.19507 | 28 ft | 1 kts | 323° |
| 2026-04-26 16:09 | 32.73295 | -117.19509 | 28 ft | 0 kts | 340° |
| 2026-04-26 16:10 | 32.73296 | -117.19509 | 28 ft | 0 kts | 346° |
| 2026-04-26 16:10 | 32.73297 | -117.19509 | 28 ft | 0 kts | 346° |
| 2026-04-26 16:12 | 32.73321 | -117.19508 | 28 ft | 7 kts | 8° |
| 2026-04-26 16:12 | 32.73365 | -117.19476 | 29 ft | 7 kts | 72° |
| 2026-04-26 16:12 | 32.73336 | -117.19304 | 26 ft | 13 kts | 106° |
| 2026-04-26 16:13 | 32.73308 | -117.19191 | 26 ft | 15 kts | 106° |
| 2026-04-26 16:13 | 32.73279 | -117.19072 | 28 ft | 15 kts | 107° |
| 2026-04-26 16:13 | 32.73248 | -117.18945 | 29 ft | 17 kts | 106° |
| 2026-04-26 16:13 | 32.73214 | -117.18806 | 31 ft | 18 kts | 106° |
| 2026-04-26 16:14 | 32.73179 | -117.18664 | 33 ft | 17 kts | 106° |
| 2026-04-26 16:14 | 32.73144 | -117.18517 | 31 ft | 20 kts | 106° |
| 2026-04-26 16:14 | 32.73066 | -117.18195 | 30 ft | 22 kts | 105° |
| 2026-04-26 16:15 | 32.73023 | -117.18017 | 27 ft | 23 kts | 106° |
| 2026-04-26 16:15 | 32.72989 | -117.17881 | 28 ft | 13 kts | 107° |
| 2026-04-26 16:15 | 32.72962 | -117.17782 | 26 ft | 10 kts | 108° |
| 2026-04-26 16:16 | 32.72949 | -117.17702 | 26 ft | 2 kts | 84° |
| 2026-04-26 16:16 | 32.72952 | -117.17687 | 26 ft | 2 kts | 77° |
| 2026-04-26 16:16 | 32.72957 | -117.17666 | 27 ft | 4 kts | 73° |
| 2026-04-26 16:16 | 32.72979 | -117.17615 | 29 ft | 9 kts | 37° |
| 2026-04-26 16:17 | 32.73032 | -117.17632 | 28 ft | 10 kts | 293° |
| 2026-04-26 16:17 | 32.73057 | -117.17732 | 27 ft | 18 kts | 285° |
| 2026-04-26 16:17 | 32.73151 | -117.18123 | 30 ft | 88 kts | 286° |
| 2026-04-26 16:17 | 32.73384 | -117.19086 | 40 ft | 150 kts | 286° |
| 2026-04-26 16:18 | 32.73701 | -117.20331 | 656 ft | 159 kts | 285° |
| 2026-04-26 16:18 | 32.74500 | -117.22880 | 2292 ft | 177 kts | 302° |
| 2026-04-26 16:19 | 32.76139 | -117.25639 | 3225 ft | 231 kts | 304° |
| 2026-04-26 16:19 | 32.77093 | -117.27178 | 4260 ft | 235 kts | 304° |
| 2026-04-26 16:19 | 32.78771 | -117.29914 | 5746 ft | 252 kts | 304° |
| 2026-04-26 16:20 | 32.80190 | -117.32190 | 7028 ft | 259 kts | 306° |
| 2026-04-26 16:20 | 32.82406 | -117.35610 | 8961 ft | 264 kts | 305° |
| 2026-04-26 16:20 | 32.83532 | -117.37353 | 9903 ft | 267 kts | 305° |
| 2026-04-26 16:21 | 32.84667 | -117.39117 | 10602 ft | 279 kts | 304° |
| 2026-04-26 16:21 | 32.85883 | -117.41006 | 11051 ft | 296 kts | 304° |
| 2026-04-26 16:21 | 32.87161 | -117.42993 | 11646 ft | 306 kts | 304° |
| 2026-04-26 16:21 | 32.88452 | -117.45002 | 12579 ft | 306 kts | 304° |
| 2026-04-26 16:22 | 32.89750 | -117.47023 | 13466 ft | 309 kts | 303° |
| 2026-04-26 16:22 | 32.91058 | -117.49059 | 14274 ft | 311 kts | 303° |
| 2026-04-26 16:22 | 32.92379 | -117.51119 | 15012 ft | 314 kts | 303° |
| 2026-04-26 16:22 | 32.93715 | -117.53199 | 15750 ft | 318 kts | 302° |
| 2026-04-26 16:23 | 32.95065 | -117.55303 | 16483 ft | 321 kts | 302° |
| 2026-04-26 16:23 | 32.96431 | -117.57432 | 17242 ft | 324 kts | 302° |
| 2026-04-26 16:23 | 32.97810 | -117.59584 | 17948 ft | 328 kts | 302° |
| 2026-04-26 16:23 | 32.99201 | -117.61754 | 18598 ft | 331 kts | 301° |
| 2026-04-26 16:24 | 33.00608 | -117.63950 | 19215 ft | 334 kts | 301° |
| 2026-04-26 16:24 | 33.02012 | -117.66145 | 19754 ft | 339 kts | 301° |
| 2026-04-26 16:24 | 33.03448 | -117.68389 | 20338 ft | 341 kts | 301° |
| 2026-04-26 16:24 | 33.04892 | -117.70649 | 20933 ft | 344 kts | 301° |
| 2026-04-26 16:25 | 33.06391 | -117.72900 | 21506 ft | 351 kts | 308° |
| 2026-04-26 16:25 | 33.08261 | -117.74839 | 22138 ft | 356 kts | 312° |
| 2026-04-26 16:25 | 33.10127 | -117.76752 | 22657 ft | 360 kts | 311° |
| 2026-04-26 16:25 | 33.12040 | -117.78706 | 23214 ft | 363 kts | 311° |
| 2026-04-26 16:26 | 33.13964 | -117.80668 | 23729 ft | 366 kts | 311° |
| 2026-04-26 16:26 | 33.15275 | -117.82004 | 24037 ft | 367 kts | 311° |
| 2026-04-26 16:26 | 33.17852 | -117.84630 | 24671 ft | 369 kts | 310° |
| 2026-04-26 16:26 | 33.19834 | -117.86607 | 25147 ft | 373 kts | 312° |
| 2026-04-26 16:27 | 33.21855 | -117.88568 | 25548 ft | 376 kts | 312° |
| 2026-04-26 16:27 | 33.23883 | -117.90544 | 26018 ft | 377 kts | 311° |
| 2026-04-26 16:27 | 33.25925 | -117.92536 | 26452 ft | 379 kts | 311° |
| 2026-04-26 16:27 | 33.27974 | -117.94538 | 26885 ft | 381 kts | 311° |
| 2026-04-26 16:28 | 33.29337 | -117.95870 | 27174 ft | 382 kts | 311° |
| 2026-04-26 16:28 | 33.31402 | -117.97890 | 27600 ft | 384 kts | 311° |
| 2026-04-26 16:28 | 33.33475 | -117.99920 | 28009 ft | 386 kts | 310° |
| 2026-04-26 16:28 | 33.35556 | -118.01958 | 28416 ft | 388 kts | 310° |
| 2026-04-26 16:29 | 33.38334 | -118.04681 | 28951 ft | 390 kts | 310° |
| 2026-04-26 16:29 | 33.39755 | -118.06077 | 29223 ft | 393 kts | 311° |
| 2026-04-26 16:29 | 33.41888 | -118.08169 | 29452 ft | 398 kts | 311° |
| 2026-04-26 16:29 | 33.44701 | -118.10931 | 30123 ft | 396 kts | 311° |
| 2026-04-26 16:30 | 33.46139 | -118.12344 | 30414 ft | 395 kts | 311° |
| 2026-04-26 16:30 | 33.48261 | -118.14431 | 30833 ft | 394 kts | 311° |
| 2026-04-26 16:30 | 33.50379 | -118.16514 | 31239 ft | 393 kts | 310° |
| 2026-04-26 16:30 | 33.52493 | -118.18596 | 31634 ft | 392 kts | 310° |
| 2026-04-26 16:31 | 33.54601 | -118.20673 | 31961 ft | 393 kts | 310° |
| 2026-04-26 16:31 | 33.56692 | -118.22724 | 32025 ft | 393 kts | 312° |
| 2026-04-26 16:31 | 33.59093 | -118.24418 | 32022 ft | 409 kts | 326° |
| 2026-04-26 16:31 | 33.61690 | -118.25836 | 31994 ft | 411 kts | 324° |
| 2026-04-26 16:32 | 33.66882 | -118.28728 | 31992 ft | 412 kts | 325° |
| 2026-04-26 16:32 | 33.72092 | -118.31606 | 32006 ft | 412 kts | 325° |
| 2026-04-26 16:33 | 33.77336 | -118.34393 | 32070 ft | 412 kts | 327° |
| 2026-04-26 16:33 | 33.82667 | -118.37075 | 32013 ft | 416 kts | 328° |
| 2026-04-26 16:34 | 33.87982 | -118.39770 | 32014 ft | 415 kts | 328° |
| 2026-04-26 16:34 | 33.93314 | -118.42480 | 32019 ft | 415 kts | 328° |
| 2026-04-26 16:35 | 33.98618 | -118.45177 | 32046 ft | 415 kts | 329° |
| 2026-04-26 16:35 | 34.01434 | -118.46152 | 31977 ft | 429 kts | 345° |
| 2026-04-26 16:35 | 34.04417 | -118.46567 | 32006 ft | 432 kts | 344° |
| 2026-04-26 16:36 | 34.10343 | -118.47526 | 32046 ft | 432 kts | 345° |
| 2026-04-26 16:36 | 34.16314 | -118.48451 | 31979 ft | 432 kts | 345° |
| 2026-04-26 16:37 | 34.22287 | -118.49369 | 32012 ft | 432 kts | 345° |
| 2026-04-26 16:37 | 34.28254 | -118.50289 | 31980 ft | 431 kts | 345° |
| 2026-04-26 16:38 | 34.34179 | -118.51203 | 32008 ft | 432 kts | 345° |
| 2026-04-26 16:38 | 34.40145 | -118.52124 | 32006 ft | 431 kts | 345° |
| 2026-04-26 16:39 | 34.46099 | -118.53045 | 31987 ft | 430 kts | 346° |
| 2026-04-26 16:39 | 34.52040 | -118.53965 | 31976 ft | 430 kts | 346° |
| 2026-04-26 16:40 | 34.57953 | -118.54882 | 31982 ft | 430 kts | 346° |
| 2026-04-26 16:40 | 34.63898 | -118.55805 | 31980 ft | 430 kts | 346° |
| 2026-04-26 16:41 | 34.69829 | -118.56728 | 31969 ft | 429 kts | 347° |
| 2026-04-26 16:41 | 34.75747 | -118.57650 | 31979 ft | 429 kts | 347° |
| 2026-04-26 16:42 | 34.81676 | -118.58575 | 31975 ft | 429 kts | 347° |
| 2026-04-26 16:42 | 34.87606 | -118.59502 | 31986 ft | 429 kts | 347° |
| 2026-04-26 16:43 | 34.93490 | -118.60422 | 31984 ft | 429 kts | 347° |
| 2026-04-26 16:43 | 34.99385 | -118.61469 | 31974 ft | 422 kts | 338° |
| 2026-04-26 16:44 | 35.01986 | -118.62891 | 31951 ft | 395 kts | 320° |
| 2026-04-26 16:44 | 35.04124 | -118.64841 | 31821 ft | 378 kts | 317° |
| 2026-04-26 16:44 | 35.06188 | -118.66789 | 31402 ft | 373 kts | 316° |
| 2026-04-26 16:44 | 35.08217 | -118.68770 | 30880 ft | 371 kts | 316° |
| 2026-04-26 16:45 | 35.10213 | -118.70752 | 30417 ft | 369 kts | 316° |
| 2026-04-26 16:45 | 35.12186 | -118.72731 | 29986 ft | 365 kts | 316° |
| 2026-04-26 16:45 | 35.14133 | -118.74697 | 29503 ft | 361 kts | 316° |
| 2026-04-26 16:45 | 35.16051 | -118.76642 | 29085 ft | 357 kts | 316° |
| 2026-04-26 16:46 | 35.17956 | -118.78576 | 28687 ft | 354 kts | 316° |
| 2026-04-26 16:46 | 35.19841 | -118.80492 | 28293 ft | 351 kts | 316° |
| 2026-04-26 16:46 | 35.21708 | -118.82390 | 27906 ft | 348 kts | 316° |
| 2026-04-26 16:46 | 35.23539 | -118.84254 | 27532 ft | 344 kts | 316° |
| 2026-04-26 16:47 | 35.25373 | -118.86122 | 27170 ft | 342 kts | 317° |
| 2026-04-26 16:47 | 35.27193 | -118.87977 | 26793 ft | 339 kts | 317° |
| 2026-04-26 16:47 | 35.29005 | -118.89824 | 26427 ft | 337 kts | 317° |
| 2026-04-26 16:47 | 35.30800 | -118.91656 | 26068 ft | 335 kts | 317° |
| 2026-04-26 16:48 | 35.32590 | -118.93484 | 25718 ft | 337 kts | 317° |
| 2026-04-26 16:48 | 35.34404 | -118.95337 | 25357 ft | 341 kts | 317° |
| 2026-04-26 16:48 | 35.36229 | -118.97202 | 24994 ft | 342 kts | 317° |
| 2026-04-26 16:48 | 35.38051 | -118.99066 | 24638 ft | 340 kts | 317° |
| 2026-04-26 16:49 | 35.39864 | -119.00921 | 24294 ft | 338 kts | 317° |
| 2026-04-26 16:49 | 35.41665 | -119.02765 | 23947 ft | 337 kts | 317° |
| 2026-04-26 16:49 | 35.43457 | -119.04601 | 23597 ft | 335 kts | 318° |
| 2026-04-26 16:49 | 35.45216 | -119.06403 | 23191 ft | 333 kts | 318° |
| 2026-04-26 16:50 | 35.47063 | -119.08118 | 22769 ft | 334 kts | 329° |
| 2026-04-26 16:50 | 35.49259 | -119.09031 | 22369 ft | 336 kts | 350° |
| 2026-04-26 16:50 | 35.51602 | -119.08994 | 22082 ft | 335 kts | 4° |
| 2026-04-26 16:50 | 35.53904 | -119.08660 | 21769 ft | 331 kts | 4° |
| 2026-04-26 16:51 | 35.56178 | -119.08302 | 21434 ft | 328 kts | 5° |
| 2026-04-26 16:51 | 35.58435 | -119.07925 | 21107 ft | 326 kts | 5° |
| 2026-04-26 16:51 | 35.60670 | -119.07540 | 20779 ft | 323 kts | 5° |
| 2026-04-26 16:51 | 35.62886 | -119.07153 | 20465 ft | 320 kts | 5° |
| 2026-04-26 16:52 | 35.65081 | -119.06765 | 20142 ft | 318 kts | 6° |
| 2026-04-26 16:52 | 35.66529 | -119.06509 | 19928 ft | 316 kts | 6° |
| 2026-04-26 16:52 | 35.69430 | -119.05993 | 19493 ft | 314 kts | 6° |
| 2026-04-26 16:52 | 35.71590 | -119.05609 | 19174 ft | 313 kts | 6° |
| 2026-04-26 16:53 | 35.73742 | -119.05225 | 18855 ft | 311 kts | 6° |
| 2026-04-26 16:53 | 35.75847 | -119.04849 | 18551 ft | 309 kts | 6° |
| 2026-04-26 16:53 | 35.77972 | -119.04469 | 18227 ft | 307 kts | 6° |
| 2026-04-26 16:53 | 35.80080 | -119.04092 | 17877 ft | 305 kts | 6° |
| 2026-04-26 16:54 | 35.82170 | -119.03718 | 17549 ft | 302 kts | 6° |
| 2026-04-26 16:54 | 35.84239 | -119.03348 | 17232 ft | 299 kts | 6° |
| 2026-04-26 16:54 | 35.86296 | -119.02979 | 16934 ft | 301 kts | 6° |
| 2026-04-26 16:54 | 35.88388 | -119.02604 | 16623 ft | 306 kts | 6° |
| 2026-04-26 16:55 | 35.90510 | -119.02298 | 16237 ft | 307 kts | 356° |
| 2026-04-26 16:55 | 35.92543 | -119.02814 | 15948 ft | 301 kts | 338° |
| 2026-04-26 16:55 | 35.94499 | -119.03691 | 15647 ft | 298 kts | 339° |
| 2026-04-26 16:55 | 35.96433 | -119.04567 | 15358 ft | 295 kts | 338° |
| 2026-04-26 16:56 | 36.00240 | -119.06337 | 14796 ft | 290 kts | 338° |
| 2026-04-26 16:56 | 36.02121 | -119.07225 | 14497 ft | 288 kts | 338° |
| 2026-04-26 16:56 | 36.03989 | -119.08110 | 14199 ft | 286 kts | 338° |
| 2026-04-26 16:57 | 36.05839 | -119.08990 | 13896 ft | 284 kts | 338° |
| 2026-04-26 16:57 | 36.07677 | -119.09864 | 13591 ft | 282 kts | 337° |
| 2026-04-26 16:57 | 36.11306 | -119.11594 | 12953 ft | 277 kts | 337° |
| 2026-04-26 16:58 | 36.13095 | -119.12447 | 12664 ft | 274 kts | 337° |
| 2026-04-26 16:58 | 36.14272 | -119.13009 | 12479 ft | 272 kts | 337° |
| 2026-04-26 16:58 | 36.18443 | -119.15002 | 11820 ft | 281 kts | 338° |
| 2026-04-26 16:59 | 36.20271 | -119.15875 | 11523 ft | 282 kts | 338° |
| 2026-04-26 16:59 | 36.23938 | -119.17629 | 10928 ft | 283 kts | 338° |
| 2026-04-26 17:00 | 36.27612 | -119.19388 | 10330 ft | 283 kts | 338° |
| 2026-04-26 17:00 | 36.31219 | -119.21120 | 9867 ft | 271 kts | 338° |
| 2026-04-26 17:00 | 36.32969 | -119.21959 | 9584 ft | 268 kts | 338° |
| 2026-04-26 17:01 | 36.34705 | -119.22791 | 9291 ft | 265 kts | 338° |
| 2026-04-26 17:01 | 36.36419 | -119.23613 | 8986 ft | 264 kts | 338° |
| 2026-04-26 17:01 | 36.38128 | -119.24434 | 8704 ft | 261 kts | 338° |
| 2026-04-26 17:01 | 36.39815 | -119.25245 | 8446 ft | 259 kts | 338° |
| 2026-04-26 17:02 | 36.41497 | -119.26053 | 8175 ft | 258 kts | 338° |
| 2026-04-26 17:02 | 36.43176 | -119.26861 | 7909 ft | 258 kts | 338° |
| 2026-04-26 17:02 | 36.44848 | -119.27665 | 7629 ft | 258 kts | 338° |
| 2026-04-26 17:02 | 36.46502 | -119.28463 | 7365 ft | 257 kts | 338° |
| 2026-04-26 17:03 | 36.48174 | -119.29268 | 7087 ft | 258 kts | 338° |
| 2026-04-26 17:03 | 36.49849 | -119.30075 | 6787 ft | 258 kts | 338° |
| 2026-04-26 17:03 | 36.51517 | -119.30879 | 6516 ft | 255 kts | 338° |
| 2026-04-26 17:03 | 36.53169 | -119.31675 | 6235 ft | 253 kts | 338° |
| 2026-04-26 17:04 | 36.54777 | -119.32540 | 5932 ft | 251 kts | 326° |
| 2026-04-26 17:04 | 36.55983 | -119.34072 | 5606 ft | 248 kts | 305° |
| 2026-04-26 17:04 | 36.56998 | -119.35793 | 5337 ft | 245 kts | 306° |
| 2026-04-26 17:04 | 36.57993 | -119.37481 | 5080 ft | 240 kts | 306° |
| 2026-04-26 17:05 | 36.58949 | -119.39117 | 4888 ft | 230 kts | 306° |
| 2026-04-26 17:05 | 36.59863 | -119.40690 | 4755 ft | 219 kts | 305° |
| 2026-04-26 17:05 | 36.60728 | -119.42185 | 4743 ft | 207 kts | 305° |
| 2026-04-26 17:05 | 36.61564 | -119.43633 | 4676 ft | 208 kts | 305° |
| 2026-04-26 17:06 | 36.62414 | -119.45108 | 4551 ft | 211 kts | 306° |
| 2026-04-26 17:06 | 36.63275 | -119.46603 | 4399 ft | 212 kts | 305° |
| 2026-04-26 17:06 | 36.64141 | -119.48094 | 4256 ft | 212 kts | 306° |
| 2026-04-26 17:06 | 36.65008 | -119.49581 | 4119 ft | 212 kts | 306° |
| 2026-04-26 17:07 | 36.65855 | -119.51051 | 3980 ft | 210 kts | 306° |
| 2026-04-26 17:07 | 36.66707 | -119.52498 | 3817 ft | 204 kts | 309° |
| 2026-04-26 17:07 | 36.67610 | -119.53841 | 3498 ft | 201 kts | 311° |
| 2026-04-26 17:07 | 36.68519 | -119.55141 | 3236 ft | 196 kts | 308° |
| 2026-04-26 17:08 | 36.69251 | -119.56493 | 3090 ft | 179 kts | 300° |
| 2026-04-26 17:08 | 36.69806 | -119.57804 | 2799 ft | 163 kts | 299° |
| 2026-04-26 17:08 | 36.70387 | -119.58934 | 2573 ft | 150 kts | 304° |
| 2026-04-26 17:08 | 36.70978 | -119.60014 | 2411 ft | 151 kts | 306° |
| 2026-04-26 17:09 | 36.71583 | -119.61068 | 2204 ft | 152 kts | 306° |
| 2026-04-26 17:09 | 36.71799 | -119.61446 | 2180 ft | 157 kts | 306° |
| 2026-04-26 17:09 | 36.72805 | -119.63165 | 2024 ft | 146 kts | 308° |
| 2026-04-26 17:09 | 36.73398 | -119.64226 | 1718 ft | 153 kts | 303° |
| 2026-04-26 17:10 | 36.73992 | -119.65322 | 1462 ft | 152 kts | 305° |
| 2026-04-26 17:10 | 36.74610 | -119.66393 | 1229 ft | 153 kts | 307° |
| 2026-04-26 17:10 | 36.75241 | -119.67476 | 1003 ft | 154 kts | 305° |
| 2026-04-26 17:10 | 36.75855 | -119.68570 | 774 ft | 153 kts | 305° |
| 2026-04-26 17:11 | 36.76478 | -119.69648 | 555 ft | 153 kts | 306° |
| 2026-04-26 17:11 | 36.77090 | -119.70716 | 356 ft | 147 kts | 306° |
| 2026-04-26 17:11 | 36.77618 | -119.71638 | 339 ft | 108 kts | 305° |
| 2026-04-26 17:11 | 36.77926 | -119.72178 | 332 ft | 53 kts | 305° |
| 2026-04-26 17:12 | 36.78263 | -119.72769 | 334 ft | 39 kts | 305° |
| 2026-04-26 17:12 | 36.78362 | -119.72952 | 331 ft | 18 kts | 290° |
| 2026-04-26 17:13 | 36.78260 | -119.73117 | 335 ft | 13 kts | 215° |
| 2026-04-26 17:13 | 36.78186 | -119.73184 | 336 ft | 10 kts | 215° |
| 2026-04-26 17:13 | 36.78094 | -119.73123 | 342 ft | 9 kts | 125° |
| 2026-04-26 17:14 | 36.78052 | -119.73047 | 345 ft | 14 kts | 126° |
| 2026-04-26 17:14 | 36.77910 | -119.72801 | 349 ft | 20 kts | 125° |
| 2026-04-26 17:14 | 36.77824 | -119.72648 | 338 ft | 22 kts | 126° |
| 2026-04-26 17:15 | 36.77678 | -119.72394 | 332 ft | 22 kts | 126° |
| 2026-04-26 17:15 | 36.77607 | -119.72269 | 338 ft | 17 kts | 125° |
| 2026-04-26 17:15 | 36.77534 | -119.72139 | 336 ft | 18 kts | 125° |
| 2026-04-26 17:16 | 36.77476 | -119.72043 | 340 ft | 12 kts | 133° |
| 2026-04-26 17:16 | 36.77403 | -119.71990 | 344 ft | 13 kts | 155° |
| 2026-04-26 17:16 | 36.77328 | -119.71949 | 340 ft | 11 kts | 155° |
| 2026-04-26 17:16 | 36.77286 | -119.71932 | 338 ft | 4 kts | 178° |
| 2026-04-26 17:17 | 36.77252 | -119.71940 | 338 ft | 6 kts | 199° |
| 2026-04-26 17:17 | 36.77216 | -119.71933 | 337 ft | 2 kts | 144° |
| 2026-04-26 17:17 | 36.77205 | -119.71919 | 339 ft | 0 kts | 136° |
| 2026-04-26 17:17 | 36.77202 | -119.71915 | 339 ft | 0 kts | 136° |
| 2026-04-26 17:18 | 36.74823 | -119.66752 | 1161 ft | 154 kts | 306° |
| 2026-04-26 17:18 | 36.75461 | -119.67869 | 918 ft | 154 kts | 305° |
| 2026-04-26 17:18 | 36.76122 | -119.69034 | 686 ft | 153 kts | 306° |
| 2026-04-26 17:18 | 36.76823 | -119.70251 | 427 ft | 152 kts | 306° |
| 2026-04-26 17:19 | 36.77914 | -119.72157 | 332 ft | 55 kts | 306° |
| 2026-04-26 17:19 | 36.76359 | -119.69442 | 600 ft | 153 kts | 306° |
| 2026-04-26 17:19 | 36.77050 | -119.70646 | 363 ft | 149 kts | 306° |
| 2026-04-26 17:20 | 36.77647 | -119.71689 | 341 ft | 103 kts | 305° |
| 2026-04-26 17:20 | 36.77880 | -119.72098 | 333 ft | 62 kts | 306° |
| 2026-04-26 17:20 | 36.78154 | -119.72578 | 339 ft | 41 kts | 305° |
| 2026-04-26 17:20 | 36.78324 | -119.72875 | 337 ft | 26 kts | 306° |
| 2026-04-26 17:21 | 36.77220 | -119.70942 | 336 ft | 142 kts | 306° |
| 2026-04-26 17:21 | 36.76979 | -119.70522 | 379 ft | 151 kts | 306° |
| 2026-04-26 17:21 | 36.76787 | -119.70188 | 435 ft | 152 kts | 306° |